Shin Mei Maru — JG5617 — position and weather

sailwx.info

Track history (hours):
 
Tides and Currents Weather Stations Pressure Air Temp Water Temp Dewpoint Dewpoint Depression Visibility Wind Speed Wind Dir Waves Ship Positions

Shin Mei Maru

Last reported at 2014-Oct-19 11:30 UTC. Time now 2014-Oct-21 08:42 UTC.
Position N 35°05' E 139°43'.

Length 160 m; draft 6.8 m.

Type: Cargo ship. MMSI: 431100922.

Date/timePositionNaut miles runAvg speedWind from/ knotsBaromVisibWave heightAir tempDewpointWater temp
2014-Oct-19 11:30N 35°05' E 139°43'1414.4
2014-Oct-19 10:33N 35°18' E 139°44'1515.0
2014-Oct-19 09:33N 35°32' E 139°51'6 0.9
2014-Oct-19 03:32N 35°37' E 139°46'1212.8
2014-Oct-19 02:33N 35°24' E 139°46'1212.0
2014-Oct-19 01:33N 35°12' E 139°47'24816.3
2014-Oct-18 10:22N 34°01' E 134°58'1619.9
2014-Oct-18 09:33N 34°17' E 134°59'1918.8
2014-Oct-18 08:33N 34°31' E 135°14'1110.8
2014-Oct-18 07:33N 34°37' E 135°25'0 0.0
2014-Oct-18 06:30N 34°37' E 135°25'0 0.0
2014-Oct-18 05:12N 34°37' E 135°25'0 0.0
2014-Oct-18 04:30N 34°37' E 135°25'0 0.0
2014-Oct-18 03:30N 34°37' E 135°25'0 0.0
2014-Oct-18 02:18N 34°37' E 135°25'0 0.0
2014-Oct-18 01:12N 34°37' E 135°25'0 0.0
2014-Oct-18 00:33N 34°37' E 135°25'1110.9
2014-Oct-17 23:33N 34°31' E 135°14'1818.4
2014-Oct-17 22:33N 34°17' E 134°59'1918.7
2014-Oct-17 21:33N 33°58' E 134°59'23817.0
2014-Oct-17 07:33N 35°03' E 139°37'1615.7
2014-Oct-17 06:33N 35°17' E 139°45'1313.1
2014-Oct-17 05:34N 35°29' E 139°51'10 1.4
2014-Oct-16 22:22N 35°38' E 139°46'3 4.2
2014-Oct-16 21:33N 35°35' E 139°48'1212.1
2014-Oct-16 20:34N 35°23' E 139°46'1111.4
2014-Oct-16 19:33N 35°12' E 139°47'  
2014-Oct-11 14:11N 35°03' E 139°44'1117.9
2014-Oct-11 13:33N 35°14' E 139°46'1313.2
2014-Oct-11 12:34N 35°27' E 139°47'1110.6
2014-Oct-11 11:32N 35°38' E 139°46'0 0.1
2014-Oct-11 07:33N 35°38' E 139°46'1111.4
2014-Oct-11 06:34N 35°27' E 139°50'1212.4
2014-Oct-11 05:33N 35°15' E 139°47'24915.6
2014-Oct-10 13:33N 34°02' E 134°58'1919.3
2014-Oct-10 12:33N 34°21' E 134°59'2019.7
2014-Oct-10 11:33N 34°34' E 135°18'7 6.6
2014-Oct-10 10:32N 34°37' E 135°25'0 0.0
2014-Oct-10 08:27N 34°37' E 135°25'0 0.0
2014-Oct-10 06:33N 34°37' E 135°25'0 0.0
2014-Oct-10 03:27N 34°37' E 135°25'5 5.6
2014-Oct-10 02:33N 34°35' E 135°19'1716.8
2014-Oct-10 01:33N 34°23' E 135°04'1716.9
2014-Oct-10 00:33N 34°07' E 134°59'  
Track history (hours):
 
Tides and Currents Weather Stations Pressure Air Temp Water Temp Dewpoint Dewpoint Depression Visibility Wind Speed Wind Dir Waves Ship Positions

Shin Mei Maru

Last reported at 2014-Oct-19 11:30 UTC. Time now 2014-Oct-21 08:42 UTC.
Position N 35°05' E 139°43'.

Length 160 m; draft 6.8 m.

Type: Cargo ship. MMSI: 431100922.

Date/timePositionNaut miles runAvg speedWind from/ knotsBaromVisibWave heightAir tempDewpointWater temp
2014-Oct-19 11:30N 35°05' E 139°43'1414.4
2014-Oct-19 10:33N 35°18' E 139°44'1515.0
2014-Oct-19 09:33N 35°32' E 139°51'6 0.9
2014-Oct-19 03:32N 35°37' E 139°46'1212.8
2014-Oct-19 02:33N 35°24' E 139°46'1212.0
2014-Oct-19 01:33N 35°12' E 139°47'24816.3
2014-Oct-18 10:22N 34°01' E 134°58'1619.9
2014-Oct-18 09:33N 34°17' E 134°59'1918.8
2014-Oct-18 08:33N 34°31' E 135°14'1110.8
2014-Oct-18 07:33N 34°37' E 135°25'0 0.0
2014-Oct-18 06:30N 34°37' E 135°25'0 0.0
2014-Oct-18 05:12N 34°37' E 135°25'0 0.0
2014-Oct-18 04:30N 34°37' E 135°25'0 0.0
2014-Oct-18 03:30N 34°37' E 135°25'0 0.0
2014-Oct-18 02:18N 34°37' E 135°25'0 0.0
2014-Oct-18 01:12N 34°37' E 135°25'0 0.0
2014-Oct-18 00:33N 34°37' E 135°25'1110.9
2014-Oct-17 23:33N 34°31' E 135°14'1818.4
2014-Oct-17 22:33N 34°17' E 134°59'1918.7
2014-Oct-17 21:33N 33°58' E 134°59'23817.0
2014-Oct-17 07:33N 35°03' E 139°37'1615.7
2014-Oct-17 06:33N 35°17' E 139°45'1313.1
2014-Oct-17 05:34N 35°29' E 139°51'10 1.4
2014-Oct-16 22:22N 35°38' E 139°46'3 4.2
2014-Oct-16 21:33N 35°35' E 139°48'1212.1
2014-Oct-16 20:34N 35°23' E 139°46'1111.4
2014-Oct-16 19:33N 35°12' E 139°47'  
2014-Oct-11 14:11N 35°03' E 139°44'1117.9
2014-Oct-11 13:33N 35°14' E 139°46'1313.2
2014-Oct-11 12:34N 35°27' E 139°47'1110.6
2014-Oct-11 11:32N 35°38' E 139°46'0 0.1
2014-Oct-11 07:33N 35°38' E 139°46'1111.4
2014-Oct-11 06:34N 35°27' E 139°50'1212.4
2014-Oct-11 05:33N 35°15' E 139°47'24915.6
2014-Oct-10 13:33N 34°02' E 134°58'1919.3
2014-Oct-10 12:33N 34°21' E 134°59'2019.7
2014-Oct-10 11:33N 34°34' E 135°18'7 6.6
2014-Oct-10 10:32N 34°37' E 135°25'0 0.0
2014-Oct-10 08:27N 34°37' E 135°25'0 0.0
2014-Oct-10 06:33N 34°37' E 135°25'0 0.0
2014-Oct-10 03:27N 34°37' E 135°25'5 5.6
2014-Oct-10 02:33N 34°35' E 135°19'1716.8
2014-Oct-10 01:33N 34°23' E 135°04'1716.9
2014-Oct-10 00:33N 34°07' E 134°59'  

Dump ship's entire track history